sensor_id;sensor_type;location;lat;lon;timestamp;P1;durP1;ratioP1;P2;durP2;ratioP2
60225;SDS011;46090;48.436;11.410;2022-08-14T00:00:05;5.05;;;2.40;;
60225;SDS011;46090;48.436;11.410;2022-08-14T00:02:43;5.32;;;2.58;;
60225;SDS011;46090;48.436;11.410;2022-08-14T00:05:15;5.57;;;2.78;;
60225;SDS011;46090;48.436;11.410;2022-08-14T00:07:44;5.38;;;2.42;;
60225;SDS011;46090;48.436;11.410;2022-08-14T00:10:16;5.35;;;2.97;;
60225;SDS011;46090;48.436;11.410;2022-08-14T00:13:06;4.93;;;2.60;;
60225;SDS011;46090;48.436;11.410;2022-08-14T00:15:43;5.13;;;2.83;;
60225;SDS011;46090;48.436;11.410;2022-08-14T00:18:16;5.50;;;2.65;;
60225;SDS011;46090;48.436;11.410;2022-08-14T00:21:05;5.40;;;3.00;;
60225;SDS011;46090;48.436;11.410;2022-08-14T00:23:38;8.00;;;3.33;;
60225;SDS011;46090;48.436;11.410;2022-08-14T00:26:06;5.07;;;2.55;;
60225;SDS011;46090;48.436;11.410;2022-08-14T00:28:47;5.05;;;2.50;;
60225;SDS011;46090;48.436;11.410;2022-08-14T00:31:14;8.77;;;3.30;;
60225;SDS011;46090;48.436;11.410;2022-08-14T00:33:43;4.18;;;2.40;;
60225;SDS011;46090;48.436;11.410;2022-08-14T00:36:21;4.90;;;2.75;;
60225;SDS011;46090;48.436;11.410;2022-08-14T00:39:14;4.57;;;2.78;;
60225;SDS011;46090;48.436;11.410;2022-08-14T00:41:44;4.97;;;2.85;;
60225;SDS011;46090;48.436;11.410;2022-08-14T00:44:12;5.03;;;2.60;;
60225;SDS011;46090;48.436;11.410;2022-08-14T00:46:48;5.90;;;2.65;;
60225;SDS011;46090;48.436;11.410;2022-08-14T00:49:17;4.15;;;2.40;;
60225;SDS011;46090;48.436;11.410;2022-08-14T00:51:46;5.43;;;2.67;;
60225;SDS011;46090;48.436;11.410;2022-08-14T00:54:13;5.55;;;2.60;;
60225;SDS011;46090;48.436;11.410;2022-08-14T00:56:50;5.38;;;3.22;;
60225;SDS011;46090;48.436;11.410;2022-08-14T00:59:25;5.32;;;3.17;;
60225;SDS011;46090;48.436;11.410;2022-08-14T01:01:55;7.20;;;3.22;;
60225;SDS011;46090;48.436;11.410;2022-08-14T01:04:27;5.25;;;3.03;;
60225;SDS011;46090;48.436;11.410;2022-08-14T01:07:21;5.10;;;2.55;;
60225;SDS011;46090;48.436;11.410;2022-08-14T01:09:53;5.97;;;3.30;;
60225;SDS011;46090;48.436;11.410;2022-08-14T01:12:27;5.47;;;3.10;;
60225;SDS011;46090;48.436;11.410;2022-08-14T01:15:07;5.15;;;2.70;;
60225;SDS011;46090;48.436;11.410;2022-08-14T01:17:43;5.30;;;3.13;;
60225;SDS011;46090;48.436;11.410;2022-08-14T01:20:30;5.63;;;3.03;;
60225;SDS011;46090;48.436;11.410;2022-08-14T01:23:16;5.78;;;3.08;;
60225;SDS011;46090;48.436;11.410;2022-08-14T01:25:46;5.53;;;2.55;;
60225;SDS011;46090;48.436;11.410;2022-08-14T01:28:18;5.50;;;3.08;;
60225;SDS011;46090;48.436;11.410;2022-08-14T01:31:16;5.70;;;2.83;;
60225;SDS011;46090;48.436;11.410;2022-08-14T01:33:46;4.82;;;2.90;;
60225;SDS011;46090;48.436;11.410;2022-08-14T01:36:35;4.85;;;2.80;;
60225;SDS011;46090;48.436;11.410;2022-08-14T01:39:10;5.90;;;2.65;;
60225;SDS011;46090;48.436;11.410;2022-08-14T01:41:42;7.30;;;3.33;;
60225;SDS011;46090;48.436;11.410;2022-08-14T01:44:14;5.47;;;3.03;;
60225;SDS011;46090;48.436;11.410;2022-08-14T01:47:03;9.35;;;3.17;;
60225;SDS011;46090;48.436;11.410;2022-08-14T01:49:57;6.82;;;3.17;;
60225;SDS011;46090;48.436;11.410;2022-08-14T01:52:26;5.35;;;3.13;;
60225;SDS011;46090;48.436;11.410;2022-08-14T01:55:15;6.60;;;4.07;;
60225;SDS011;46090;48.436;11.410;2022-08-14T01:57:43;6.28;;;3.42;;
60225;SDS011;46090;48.436;11.410;2022-08-14T02:00:35;6.95;;;3.45;;
60225;SDS011;46090;48.436;11.410;2022-08-14T02:03:05;7.05;;;3.60;;
60225;SDS011;46090;48.436;11.410;2022-08-14T02:05:34;7.28;;;3.47;;
60225;SDS011;46090;48.436;11.410;2022-08-14T02:08:05;4.88;;;2.97;;
60225;SDS011;46090;48.436;11.410;2022-08-14T02:10:39;6.05;;;3.10;;
60225;SDS011;46090;48.436;11.410;2022-08-14T02:13:12;6.55;;;3.30;;
60225;SDS011;46090;48.436;11.410;2022-08-14T02:15:42;6.65;;;2.97;;
60225;SDS011;46090;48.436;11.410;2022-08-14T02:18:10;6.90;;;3.28;;
60225;SDS011;46090;48.436;11.410;2022-08-14T02:20:46;5.55;;;3.25;;
60225;SDS011;46090;48.436;11.410;2022-08-14T02:23:14;5.10;;;3.20;;
60225;SDS011;46090;48.436;11.410;2022-08-14T02:28:21;6.95;;;3.03;;
60225;SDS011;46090;48.436;11.410;2022-08-14T02:31:12;6.38;;;3.40;;
60225;SDS011;46090;48.436;11.410;2022-08-14T02:33:41;6.57;;;3.28;;
60225;SDS011;46090;48.436;11.410;2022-08-14T02:36:09;6.90;;;3.00;;
60225;SDS011;46090;48.436;11.410;2022-08-14T02:38:57;6.13;;;3.20;;
60225;SDS011;46090;48.436;11.410;2022-08-14T02:41:27;5.47;;;3.15;;
60225;SDS011;46090;48.436;11.410;2022-08-14T02:44:11;5.20;;;3.03;;
60225;SDS011;46090;48.436;11.410;2022-08-14T02:46:39;5.60;;;3.30;;
60225;SDS011;46090;48.436;11.410;2022-08-14T02:49:09;6.00;;;3.22;;
60225;SDS011;46090;48.436;11.410;2022-08-14T02:51:38;5.80;;;2.78;;
60225;SDS011;46090;48.436;11.410;2022-08-14T02:54:06;5.97;;;3.47;;
60225;SDS011;46090;48.436;11.410;2022-08-14T02:56:36;5.93;;;3.65;;
60225;SDS011;46090;48.436;11.410;2022-08-14T02:59:26;5.25;;;3.05;;
60225;SDS011;46090;48.436;11.410;2022-08-14T03:02:03;5.45;;;3.30;;
60225;SDS011;46090;48.436;11.410;2022-08-14T03:04:32;5.68;;;3.17;;
60225;SDS011;46090;48.436;11.410;2022-08-14T03:07:01;5.82;;;3.03;;
60225;SDS011;46090;48.436;11.410;2022-08-14T03:09:37;4.90;;;2.90;;
60225;SDS011;46090;48.436;11.410;2022-08-14T03:12:26;5.45;;;3.03;;
60225;SDS011;46090;48.436;11.410;2022-08-14T03:15:00;5.40;;;3.40;;
60225;SDS011;46090;48.436;11.410;2022-08-14T03:17:35;5.88;;;3.40;;
60225;SDS011;46090;48.436;11.410;2022-08-14T03:20:26;7.20;;;3.80;;
60225;SDS011;46090;48.436;11.410;2022-08-14T03:22:55;6.40;;;3.08;;
60225;SDS011;46090;48.436;11.410;2022-08-14T03:25:27;5.40;;;3.28;;
60225;SDS011;46090;48.436;11.410;2022-08-14T03:28:05;4.65;;;2.80;;
60225;SDS011;46090;48.436;11.410;2022-08-14T03:30:40;6.13;;;3.53;;
60225;SDS011;46090;48.436;11.410;2022-08-14T03:33:10;5.95;;;3.70;;
60225;SDS011;46090;48.436;11.410;2022-08-14T03:35:39;6.78;;;3.10;;
60225;SDS011;46090;48.436;11.410;2022-08-14T03:38:28;4.38;;;2.58;;
60225;SDS011;46090;48.436;11.410;2022-08-14T03:41:17;6.38;;;3.15;;
60225;SDS011;46090;48.436;11.410;2022-08-14T03:43:53;5.72;;;3.53;;
60225;SDS011;46090;48.436;11.410;2022-08-14T03:46:43;5.90;;;3.42;;
60225;SDS011;46090;48.436;11.410;2022-08-14T03:49:24;5.18;;;3.22;;
60225;SDS011;46090;48.436;11.410;2022-08-14T03:51:58;5.32;;;3.08;;
60225;SDS011;46090;48.436;11.410;2022-08-14T03:54:28;5.07;;;3.00;;
60225;SDS011;46090;48.436;11.410;2022-08-14T03:56:56;5.65;;;3.20;;
60225;SDS011;46090;48.436;11.410;2022-08-14T03:59:30;5.82;;;3.47;;
60225;SDS011;46090;48.436;11.410;2022-08-14T04:02:00;6.50;;;3.42;;
60225;SDS011;46090;48.436;11.410;2022-08-14T04:07:44;5.47;;;3.20;;
60225;SDS011;46090;48.436;11.410;2022-08-14T04:10:26;5.63;;;3.55;;
60225;SDS011;46090;48.436;11.410;2022-08-14T04:12:58;5.45;;;3.20;;
60225;SDS011;46090;48.436;11.410;2022-08-14T04:15:30;6.45;;;3.42;;
60225;SDS011;46090;48.436;11.410;2022-08-14T04:18:18;5.80;;;3.88;;
60225;SDS011;46090;48.436;11.410;2022-08-14T04:20:46;5.95;;;3.70;;
60225;SDS011;46090;48.436;11.410;2022-08-14T04:23:21;5.13;;;3.22;;
60225;SDS011;46090;48.436;11.410;2022-08-14T04:29:11;7.28;;;3.33;;
60225;SDS011;46090;48.436;11.410;2022-08-14T04:31:45;6.97;;;3.38;;
60225;SDS011;46090;48.436;11.410;2022-08-14T04:34:34;7.07;;;3.65;;
60225;SDS011;46090;48.436;11.410;2022-08-14T04:37:09;6.60;;;3.70;;
60225;SDS011;46090;48.436;11.410;2022-08-14T04:39:57;6.57;;;3.65;;
60225;SDS011;46090;48.436;11.410;2022-08-14T04:42:44;6.88;;;3.30;;
60225;SDS011;46090;48.436;11.410;2022-08-14T04:45:31;6.38;;;3.42;;
60225;SDS011;46090;48.436;11.410;2022-08-14T04:48:07;5.68;;;3.33;;
60225;SDS011;46090;48.436;11.410;2022-08-14T04:51:05;6.03;;;3.20;;
60225;SDS011;46090;48.436;11.410;2022-08-14T04:53:36;6.13;;;3.85;;
60225;SDS011;46090;48.436;11.410;2022-08-14T04:56:10;6.78;;;4.18;;
60225;SDS011;46090;48.436;11.410;2022-08-14T04:58:59;6.72;;;3.78;;
60225;SDS011;46090;48.436;11.410;2022-08-14T05:01:40;6.53;;;3.78;;
60225;SDS011;46090;48.436;11.410;2022-08-14T05:04:17;7.05;;;3.78;;
60225;SDS011;46090;48.436;11.410;2022-08-14T05:06:48;5.72;;;3.40;;
60225;SDS011;46090;48.436;11.410;2022-08-14T05:09:24;5.78;;;3.42;;
60225;SDS011;46090;48.436;11.410;2022-08-14T05:11:56;5.25;;;3.20;;
60225;SDS011;46090;48.436;11.410;2022-08-14T05:14:43;5.53;;;3.42;;
60225;SDS011;46090;48.436;11.410;2022-08-14T05:17:20;5.85;;;3.40;;
60225;SDS011;46090;48.436;11.410;2022-08-14T05:19:58;5.70;;;3.60;;
60225;SDS011;46090;48.436;11.410;2022-08-14T05:22:47;6.85;;;3.88;;
60225;SDS011;46090;48.436;11.410;2022-08-14T05:27:50;5.75;;;3.50;;
60225;SDS011;46090;48.436;11.410;2022-08-14T05:32:57;7.80;;;3.75;;
60225;SDS011;46090;48.436;11.410;2022-08-14T05:35:24;6.30;;;3.58;;
60225;SDS011;46090;48.436;11.410;2022-08-14T05:37:52;6.03;;;3.40;;
60225;SDS011;46090;48.436;11.410;2022-08-14T05:40:20;7.65;;;3.78;;
60225;SDS011;46090;48.436;11.410;2022-08-14T05:42:51;6.78;;;3.85;;
60225;SDS011;46090;48.436;11.410;2022-08-14T05:45:19;8.38;;;4.15;;
60225;SDS011;46090;48.436;11.410;2022-08-14T05:47:48;6.38;;;4.00;;
60225;SDS011;46090;48.436;11.410;2022-08-14T05:50:16;5.88;;;3.65;;
60225;SDS011;46090;48.436;11.410;2022-08-14T05:52:47;8.30;;;4.53;;
60225;SDS011;46090;48.436;11.410;2022-08-14T05:55:18;7.65;;;3.85;;
60225;SDS011;46090;48.436;11.410;2022-08-14T05:58:01;5.95;;;3.75;;
60225;SDS011;46090;48.436;11.410;2022-08-14T06:00:36;7.93;;;3.78;;
60225;SDS011;46090;48.436;11.410;2022-08-14T06:03:13;6.78;;;4.20;;
60225;SDS011;46090;48.436;11.410;2022-08-14T06:05:51;6.18;;;3.85;;
60225;SDS011;46090;48.436;11.410;2022-08-14T06:08:20;6.30;;;3.83;;
60225;SDS011;46090;48.436;11.410;2022-08-14T06:11:08;7.28;;;3.88;;
60225;SDS011;46090;48.436;11.410;2022-08-14T06:13:46;8.40;;;3.70;;
60225;SDS011;46090;48.436;11.410;2022-08-14T06:16:15;7.65;;;3.92;;
60225;SDS011;46090;48.436;11.410;2022-08-14T06:18:47;5.55;;;3.40;;
60225;SDS011;46090;48.436;11.410;2022-08-14T06:21:20;6.60;;;4.13;;
60225;SDS011;46090;48.436;11.410;2022-08-14T06:23:49;6.13;;;3.58;;
60225;SDS011;46090;48.436;11.410;2022-08-14T06:26:17;5.53;;;3.45;;
60225;SDS011;46090;48.436;11.410;2022-08-14T06:28:48;6.38;;;3.60;;
60225;SDS011;46090;48.436;11.410;2022-08-14T06:31:18;5.63;;;3.45;;
60225;SDS011;46090;48.436;11.410;2022-08-14T06:33:47;6.32;;;3.50;;
60225;SDS011;46090;48.436;11.410;2022-08-14T06:36:36;6.32;;;3.28;;
60225;SDS011;46090;48.436;11.410;2022-08-14T06:39:06;5.78;;;3.17;;
60225;SDS011;46090;48.436;11.410;2022-08-14T06:41:37;6.95;;;3.17;;
60225;SDS011;46090;48.436;11.410;2022-08-14T06:44:26;4.90;;;2.80;;
60225;SDS011;46090;48.436;11.410;2022-08-14T06:47:01;5.60;;;3.08;;
60225;SDS011;46090;48.436;11.410;2022-08-14T06:49:29;6.07;;;3.10;;
60225;SDS011;46090;48.436;11.410;2022-08-14T06:52:11;4.97;;;3.00;;
60225;SDS011;46090;48.436;11.410;2022-08-14T06:54:43;5.30;;;2.80;;
60225;SDS011;46090;48.436;11.410;2022-08-14T06:57:11;4.63;;;2.75;;
60225;SDS011;46090;48.436;11.410;2022-08-14T06:59:39;5.47;;;3.00;;
60225;SDS011;46090;48.436;11.410;2022-08-14T07:02:09;4.85;;;2.70;;
60225;SDS011;46090;48.436;11.410;2022-08-14T07:04:56;5.40;;;2.67;;
60225;SDS011;46090;48.436;11.410;2022-08-14T07:10:19;4.82;;;2.50;;
60225;SDS011;46090;48.436;11.410;2022-08-14T07:12:52;4.80;;;2.50;;
60225;SDS011;46090;48.436;11.410;2022-08-14T07:15:31;4.55;;;2.35;;
60225;SDS011;46090;48.436;11.410;2022-08-14T07:17:59;5.25;;;2.05;;
60225;SDS011;46090;48.436;11.410;2022-08-14T07:20:36;3.70;;;1.77;;
60225;SDS011;46090;48.436;11.410;2022-08-14T07:23:05;4.10;;;1.85;;
60225;SDS011;46090;48.436;11.410;2022-08-14T07:25:37;4.95;;;2.13;;
60225;SDS011;46090;48.436;11.410;2022-08-14T07:28:14;4.45;;;2.28;;
60225;SDS011;46090;48.436;11.410;2022-08-14T07:30:47;7.22;;;2.25;;
60225;SDS011;46090;48.436;11.410;2022-08-14T07:33:19;4.95;;;2.10;;
60225;SDS011;46090;48.436;11.410;2022-08-14T07:35:58;5.07;;;2.10;;
60225;SDS011;46090;48.436;11.410;2022-08-14T07:38:26;4.30;;;1.95;;
60225;SDS011;46090;48.436;11.410;2022-08-14T07:41:03;4.90;;;2.00;;
60225;SDS011;46090;48.436;11.410;2022-08-14T07:43:40;4.80;;;2.50;;
60225;SDS011;46090;48.436;11.410;2022-08-14T07:46:12;5.40;;;2.20;;
60225;SDS011;46090;48.436;11.410;2022-08-14T07:48:46;6.22;;;2.70;;
60225;SDS011;46090;48.436;11.410;2022-08-14T07:51:14;5.38;;;2.30;;
60225;SDS011;46090;48.436;11.410;2022-08-14T07:53:42;6.55;;;2.10;;
60225;SDS011;46090;48.436;11.410;2022-08-14T07:56:15;5.15;;;2.10;;
60225;SDS011;46090;48.436;11.410;2022-08-14T07:59:03;4.53;;;1.98;;
60225;SDS011;46090;48.436;11.410;2022-08-14T08:01:38;4.40;;;1.92;;
60225;SDS011;46090;48.436;11.410;2022-08-14T08:04:24;3.67;;;1.75;;
60225;SDS011;46090;48.436;11.410;2022-08-14T08:06:53;5.40;;;1.92;;
60225;SDS011;46090;48.436;11.410;2022-08-14T08:09:22;4.53;;;2.00;;
60225;SDS011;46090;48.436;11.410;2022-08-14T08:11:59;3.50;;;1.73;;
60225;SDS011;46090;48.436;11.410;2022-08-14T08:14:33;3.70;;;1.77;;
60225;SDS011;46090;48.436;11.410;2022-08-14T08:17:22;3.90;;;1.70;;
60225;SDS011;46090;48.436;11.410;2022-08-14T08:19:50;3.88;;;1.70;;
60225;SDS011;46090;48.436;11.410;2022-08-14T08:22:18;5.43;;;1.60;;
60225;SDS011;46090;48.436;11.410;2022-08-14T08:24:48;4.15;;;1.52;;
60225;SDS011;46090;48.436;11.410;2022-08-14T08:27:17;4.50;;;1.60;;
60225;SDS011;46090;48.436;11.410;2022-08-14T08:29:51;5.50;;;1.40;;
60225;SDS011;46090;48.436;11.410;2022-08-14T08:32:37;3.65;;;1.50;;
60225;SDS011;46090;48.436;11.410;2022-08-14T08:35:20;4.63;;;1.70;;
60225;SDS011;46090;48.436;11.410;2022-08-14T08:38:23;3.55;;;1.52;;
60225;SDS011;46090;48.436;11.410;2022-08-14T08:41:08;4.38;;;1.73;;
60225;SDS011;46090;48.436;11.410;2022-08-14T08:43:38;3.33;;;1.30;;
60225;SDS011;46090;48.436;11.410;2022-08-14T08:46:13;4.20;;;1.50;;
60225;SDS011;46090;48.436;11.410;2022-08-14T08:48:52;4.72;;;1.67;;
60225;SDS011;46090;48.436;11.410;2022-08-14T08:51:27;3.70;;;1.60;;
60225;SDS011;46090;48.436;11.410;2022-08-14T08:54:11;4.28;;;1.60;;
60225;SDS011;46090;48.436;11.410;2022-08-14T08:56:46;2.88;;;1.30;;
60225;SDS011;46090;48.436;11.410;2022-08-14T08:59:23;4.65;;;1.42;;
60225;SDS011;46090;48.436;11.410;2022-08-14T09:02:01;2.50;;;1.20;;
60225;SDS011;46090;48.436;11.410;2022-08-14T09:04:36;4.32;;;1.40;;
60225;SDS011;46090;48.436;11.410;2022-08-14T09:07:19;3.17;;;1.60;;
60225;SDS011;46090;48.436;11.410;2022-08-14T09:09:53;4.18;;;1.35;;
60225;SDS011;46090;48.436;11.410;2022-08-14T09:12:26;3.47;;;1.35;;
60225;SDS011;46090;48.436;11.410;2022-08-14T09:15:03;4.00;;;1.13;;
60225;SDS011;46090;48.436;11.410;2022-08-14T09:17:39;3.20;;;1.50;;
60225;SDS011;46090;48.436;11.410;2022-08-14T09:20:09;3.75;;;1.30;;
60225;SDS011;46090;48.436;11.410;2022-08-14T09:22:39;3.72;;;1.10;;
60225;SDS011;46090;48.436;11.410;2022-08-14T09:25:17;5.07;;;1.30;;
60225;SDS011;46090;48.436;11.410;2022-08-14T09:27:45;3.40;;;1.20;;
60225;SDS011;46090;48.436;11.410;2022-08-14T09:30:13;3.13;;;1.30;;
60225;SDS011;46090;48.436;11.410;2022-08-14T09:33:06;2.33;;;1.00;;
60225;SDS011;46090;48.436;11.410;2022-08-14T09:45:00;2.55;;;0.82;;
60225;SDS011;46090;48.436;11.410;2022-08-14T09:47:45;2.70;;;0.98;;
60225;SDS011;46090;48.436;11.410;2022-08-14T09:50:25;2.30;;;1.00;;
60225;SDS011;46090;48.436;11.410;2022-08-14T09:53:02;3.47;;;0.80;;
60225;SDS011;46090;48.436;11.410;2022-08-14T09:55:31;3.58;;;0.80;;
60225;SDS011;46090;48.436;11.410;2022-08-14T09:58:12;3.08;;;1.10;;
60225;SDS011;46090;48.436;11.410;2022-08-14T10:00:46;2.38;;;0.90;;
60225;SDS011;46090;48.436;11.410;2022-08-14T10:06:12;3.38;;;1.00;;
60225;SDS011;46090;48.436;11.410;2022-08-14T10:08:48;3.05;;;1.15;;
60225;SDS011;46090;48.436;11.410;2022-08-14T10:11:27;2.78;;;0.95;;
60225;SDS011;46090;48.436;11.410;2022-08-14T10:14:14;3.13;;;1.00;;
60225;SDS011;46090;48.436;11.410;2022-08-14T10:16:56;2.53;;;0.90;;
60225;SDS011;46090;48.436;11.410;2022-08-14T10:19:25;2.97;;;1.20;;
60225;SDS011;46090;48.436;11.410;2022-08-14T10:22:05;2.33;;;0.80;;
60225;SDS011;46090;48.436;11.410;2022-08-14T10:24:56;3.03;;;1.02;;
60225;SDS011;46090;48.436;11.410;2022-08-14T10:27:27;3.58;;;1.08;;
60225;SDS011;46090;48.436;11.410;2022-08-14T10:29:55;2.95;;;1.20;;
60225;SDS011;46090;48.436;11.410;2022-08-14T10:32:27;3.25;;;1.27;;
60225;SDS011;46090;48.436;11.410;2022-08-14T10:35:15;3.78;;;1.58;;
60225;SDS011;46090;48.436;11.410;2022-08-14T10:37:46;11.10;;;1.40;;
60225;SDS011;46090;48.436;11.410;2022-08-14T10:40:28;3.38;;;1.42;;
60225;SDS011;46090;48.436;11.410;2022-08-14T10:43:21;3.67;;;1.30;;
60225;SDS011;46090;48.436;11.410;2022-08-14T10:45:54;3.33;;;1.27;;
60225;SDS011;46090;48.436;11.410;2022-08-14T10:48:28;2.78;;;1.20;;
60225;SDS011;46090;48.436;11.410;2022-08-14T10:51:06;2.55;;;1.00;;
60225;SDS011;46090;48.436;11.410;2022-08-14T10:53:34;2.88;;;1.30;;
60225;SDS011;46090;48.436;11.410;2022-08-14T10:56:08;3.22;;;1.33;;
60225;SDS011;46090;48.436;11.410;2022-08-14T10:59:03;3.25;;;1.20;;
60225;SDS011;46090;48.436;11.410;2022-08-14T11:01:35;3.47;;;1.20;;
60225;SDS011;46090;48.436;11.410;2022-08-14T11:04:19;3.63;;;1.10;;
60225;SDS011;46090;48.436;11.410;2022-08-14T11:06:54;3.17;;;1.40;;
60225;SDS011;46090;48.436;11.410;2022-08-14T11:09:22;2.78;;;1.27;;
60225;SDS011;46090;48.436;11.410;2022-08-14T11:11:55;4.13;;;1.27;;
60225;SDS011;46090;48.436;11.410;2022-08-14T11:14:49;6.15;;;1.35;;
60225;SDS011;46090;48.436;11.410;2022-08-14T11:17:28;2.70;;;1.20;;
60225;SDS011;46090;48.436;11.410;2022-08-14T11:19:59;5.70;;;1.77;;
60225;SDS011;46090;48.436;11.410;2022-08-14T11:22:27;3.72;;;1.60;;
60225;SDS011;46090;48.436;11.410;2022-08-14T11:25:17;3.92;;;2.05;;
60225;SDS011;46090;48.436;11.410;2022-08-14T11:27:45;3.55;;;1.55;;
60225;SDS011;46090;48.436;11.410;2022-08-14T11:30:16;2.38;;;1.00;;
60225;SDS011;46090;48.436;11.410;2022-08-14T11:33:08;3.10;;;1.35;;
60225;SDS011;46090;48.436;11.410;2022-08-14T11:35:36;3.58;;;1.30;;
60225;SDS011;46090;48.436;11.410;2022-08-14T11:38:14;5.75;;;1.40;;
60225;SDS011;46090;48.436;11.410;2022-08-14T11:40:44;3.00;;;1.20;;
60225;SDS011;46090;48.436;11.410;2022-08-14T11:43:13;3.45;;;1.30;;
60225;SDS011;46090;48.436;11.410;2022-08-14T11:45:46;2.72;;;1.20;;
60225;SDS011;46090;48.436;11.410;2022-08-14T11:48:19;4.15;;;1.50;;
60225;SDS011;46090;48.436;11.410;2022-08-14T11:51:16;5.35;;;1.40;;
60225;SDS011;46090;48.436;11.410;2022-08-14T11:53:50;5.38;;;1.70;;
60225;SDS011;46090;48.436;11.410;2022-08-14T11:56:20;10.13;;;1.70;;
60225;SDS011;46090;48.436;11.410;2022-08-14T11:58:56;4.45;;;1.40;;
60225;SDS011;46090;48.436;11.410;2022-08-14T12:01:27;3.67;;;1.30;;
60225;SDS011;46090;48.436;11.410;2022-08-14T12:04:10;2.58;;;1.20;;
60225;SDS011;46090;48.436;11.410;2022-08-14T12:06:58;3.38;;;1.35;;
60225;SDS011;46090;48.436;11.410;2022-08-14T12:09:33;2.85;;;1.30;;
60225;SDS011;46090;48.436;11.410;2022-08-14T12:12:21;2.75;;;1.27;;
60225;SDS011;46090;48.436;11.410;2022-08-14T12:15:03;2.63;;;1.20;;
60225;SDS011;46090;48.436;11.410;2022-08-14T12:17:44;2.60;;;1.08;;
60225;SDS011;46090;48.436;11.410;2022-08-14T12:20:15;3.03;;;1.00;;
60225;SDS011;46090;48.436;11.410;2022-08-14T12:22:59;1.90;;;0.93;;
60225;SDS011;46090;48.436;11.410;2022-08-14T12:25:27;3.25;;;1.15;;
60225;SDS011;46090;48.436;11.410;2022-08-14T12:27:55;2.75;;;1.17;;
60225;SDS011;46090;48.436;11.410;2022-08-14T12:30:31;3.03;;;1.17;;
60225;SDS011;46090;48.436;11.410;2022-08-14T12:33:22;4.30;;;1.30;;
60225;SDS011;46090;48.436;11.410;2022-08-14T12:35:58;2.55;;;1.20;;
60225;SDS011;46090;48.436;11.410;2022-08-14T12:38:32;3.50;;;0.93;;
60225;SDS011;46090;48.436;11.410;2022-08-14T12:41:08;2.95;;;1.20;;
60225;SDS011;46090;48.436;11.410;2022-08-14T12:43:48;2.88;;;1.10;;
60225;SDS011;46090;48.436;11.410;2022-08-14T12:48:59;5.07;;;1.20;;
60225;SDS011;46090;48.436;11.410;2022-08-14T12:51:37;4.40;;;1.45;;
60225;SDS011;46090;48.436;11.410;2022-08-14T12:54:18;3.25;;;1.20;;
60225;SDS011;46090;48.436;11.410;2022-08-14T12:57:07;5.00;;;1.50;;
60225;SDS011;46090;48.436;11.410;2022-08-14T12:59:45;3.70;;;1.35;;
60225;SDS011;46090;48.436;11.410;2022-08-14T13:02:22;3.95;;;1.35;;
60225;SDS011;46090;48.436;11.410;2022-08-14T13:04:53;2.15;;;1.02;;
60225;SDS011;46090;48.436;11.410;2022-08-14T13:07:25;3.30;;;1.15;;
60225;SDS011;46090;48.436;11.410;2022-08-14T13:09:59;3.22;;;1.25;;
60225;SDS011;46090;48.436;11.410;2022-08-14T13:12:48;2.72;;;1.25;;
60225;SDS011;46090;48.436;11.410;2022-08-14T13:15:37;4.82;;;1.30;;
60225;SDS011;46090;48.436;11.410;2022-08-14T13:18:08;3.55;;;1.70;;
60225;SDS011;46090;48.436;11.410;2022-08-14T13:20:38;2.88;;;1.27;;
60225;SDS011;46090;48.436;11.410;2022-08-14T13:23:18;2.80;;;1.33;;
60225;SDS011;46090;48.436;11.410;2022-08-14T13:25:57;5.03;;;1.25;;
60225;SDS011;46090;48.436;11.410;2022-08-14T13:28:25;3.53;;;1.30;;
60225;SDS011;46090;48.436;11.410;2022-08-14T13:31:00;3.25;;;1.45;;
60225;SDS011;46090;48.436;11.410;2022-08-14T13:33:40;3.38;;;1.25;;
60225;SDS011;46090;48.436;11.410;2022-08-14T13:36:11;3.22;;;1.40;;
60225;SDS011;46090;48.436;11.410;2022-08-14T13:39:00;15.57;;;1.75;;
60225;SDS011;46090;48.436;11.410;2022-08-14T13:41:27;3.28;;;1.40;;
60225;SDS011;46090;48.436;11.410;2022-08-14T13:46:34;3.13;;;1.20;;
60225;SDS011;46090;48.436;11.410;2022-08-14T13:49:03;3.50;;;1.42;;
60225;SDS011;46090;48.436;11.410;2022-08-14T13:51:41;3.97;;;1.30;;
60225;SDS011;46090;48.436;11.410;2022-08-14T13:54:17;2.80;;;1.20;;
60225;SDS011;46090;48.436;11.410;2022-08-14T13:56:50;3.38;;;1.38;;
60225;SDS011;46090;48.436;11.410;2022-08-14T13:59:17;3.22;;;1.40;;
60225;SDS011;46090;48.436;11.410;2022-08-14T14:02:05;3.33;;;1.20;;
60225;SDS011;46090;48.436;11.410;2022-08-14T14:04:39;3.03;;;1.35;;
60225;SDS011;46090;48.436;11.410;2022-08-14T14:07:14;3.97;;;1.30;;
60225;SDS011;46090;48.436;11.410;2022-08-14T14:09:47;3.53;;;1.33;;
60225;SDS011;46090;48.436;11.410;2022-08-14T14:12:19;3.08;;;1.25;;
60225;SDS011;46090;48.436;11.410;2022-08-14T14:15:09;2.80;;;1.05;;
60225;SDS011;46090;48.436;11.410;2022-08-14T14:17:37;3.08;;;1.17;;
60225;SDS011;46090;48.436;11.410;2022-08-14T14:20:07;4.20;;;1.30;;
60225;SDS011;46090;48.436;11.410;2022-08-14T14:22:59;2.58;;;1.13;;
60225;SDS011;46090;48.436;11.410;2022-08-14T14:25:29;3.88;;;1.17;;
60225;SDS011;46090;48.436;11.410;2022-08-14T14:28:15;4.72;;;1.35;;
60225;SDS011;46090;48.436;11.410;2022-08-14T14:30:52;3.42;;;1.17;;
60225;SDS011;46090;48.436;11.410;2022-08-14T14:33:27;4.15;;;1.30;;
60225;SDS011;46090;48.436;11.410;2022-08-14T14:36:21;3.70;;;1.30;;
60225;SDS011;46090;48.436;11.410;2022-08-14T14:38:55;2.40;;;1.25;;
60225;SDS011;46090;48.436;11.410;2022-08-14T14:41:26;3.95;;;1.15;;
60225;SDS011;46090;48.436;11.410;2022-08-14T14:44:08;3.35;;;1.58;;
60225;SDS011;46090;48.436;11.410;2022-08-14T14:46:44;2.97;;;1.20;;
60225;SDS011;46090;48.436;11.410;2022-08-14T14:49:19;3.65;;;1.65;;
60225;SDS011;46090;48.436;11.410;2022-08-14T14:51:57;3.10;;;1.23;;
60225;SDS011;46090;48.436;11.410;2022-08-14T14:54:24;3.70;;;1.10;;
60225;SDS011;46090;48.436;11.410;2022-08-14T14:56:58;5.47;;;1.53;;
60225;SDS011;46090;48.436;11.410;2022-08-14T14:59:29;2.97;;;1.08;;
60225;SDS011;46090;48.436;11.410;2022-08-14T15:02:03;3.20;;;1.40;;
60225;SDS011;46090;48.436;11.410;2022-08-14T15:04:37;2.53;;;1.10;;
60225;SDS011;46090;48.436;11.410;2022-08-14T15:07:10;5.43;;;1.30;;
60225;SDS011;46090;48.436;11.410;2022-08-14T15:09:40;4.30;;;1.38;;
60225;SDS011;46090;48.436;11.410;2022-08-14T15:12:08;2.92;;;1.10;;
60225;SDS011;46090;48.436;11.410;2022-08-14T15:14:55;3.28;;;1.33;;
60225;SDS011;46090;48.436;11.410;2022-08-14T15:17:36;3.63;;;1.27;;
60225;SDS011;46090;48.436;11.410;2022-08-14T15:20:09;5.93;;;1.33;;
60225;SDS011;46090;48.436;11.410;2022-08-14T15:22:56;4.07;;;1.00;;
60225;SDS011;46090;48.436;11.410;2022-08-14T15:25:24;3.60;;;1.08;;
60225;SDS011;46090;48.436;11.410;2022-08-14T15:27:53;3.28;;;1.30;;
60225;SDS011;46090;48.436;11.410;2022-08-14T15:30:22;4.53;;;1.15;;
60225;SDS011;46090;48.436;11.410;2022-08-14T15:32:58;2.78;;;1.20;;
60225;SDS011;46090;48.436;11.410;2022-08-14T15:35:26;4.93;;;1.40;;
60225;SDS011;46090;48.436;11.410;2022-08-14T15:37:56;3.38;;;1.50;;
60225;SDS011;46090;48.436;11.410;2022-08-14T15:40:23;3.38;;;1.50;;
60225;SDS011;46090;48.436;11.410;2022-08-14T15:42:51;3.30;;;1.45;;
60225;SDS011;46090;48.436;11.410;2022-08-14T15:45:17;2.72;;;1.30;;
60225;SDS011;46090;48.436;11.410;2022-08-14T15:47:47;3.78;;;1.20;;
60225;SDS011;46090;48.436;11.410;2022-08-14T15:50:18;2.75;;;1.10;;
60225;SDS011;46090;48.436;11.410;2022-08-14T15:52:46;3.25;;;1.45;;
60225;SDS011;46090;48.436;11.410;2022-08-14T15:55:14;2.60;;;1.08;;
60225;SDS011;46090;48.436;11.410;2022-08-14T15:57:42;4.22;;;1.20;;